createdAt,value
2023-01-31T00:00:52.231Z,7.47
2023-01-31T00:05:53.769Z,7.37
2023-01-31T00:10:59.135Z,7.33
2023-01-31T00:16:01.438Z,7.35
2023-01-31T00:21:17.267Z,7.19
2023-01-31T00:26:24.935Z,7.02
2023-01-31T00:31:28.241Z,6.99
2023-01-31T00:36:32.356Z,7.05
2023-01-31T00:41:36.517Z,7.02
2023-01-31T00:46:39.390Z,7.05
2023-01-31T00:51:41.006Z,7.00
2023-01-31T00:56:42.536Z,7.00
2023-01-31T01:01:44.065Z,6.92
2023-01-31T01:06:46.825Z,6.80
2023-01-31T01:11:48.809Z,6.79
2023-01-31T01:16:50.351Z,6.94
2023-01-31T01:21:54.204Z,6.99
2023-01-31T01:26:55.925Z,7.13
2023-01-31T01:31:59.850Z,7.15
2023-01-31T01:37:01.437Z,7.27
2023-01-31T01:42:03.052Z,7.26
2023-01-31T01:47:04.714Z,6.88
2023-01-31T01:52:11.417Z,6.98
2023-01-31T01:57:20.856Z,7.10
2023-01-31T02:02:26.299Z,6.95
2023-01-31T02:07:28.014Z,7.00
2023-01-31T02:12:32.033Z,7.27
2023-01-31T02:17:33.832Z,7.02
2023-01-31T02:23:09.764Z,7.21
2023-01-31T02:28:20.412Z,7.22
2023-01-31T02:33:36.902Z,6.73
2023-01-31T02:38:55.733Z,6.80
2023-01-31T02:44:14.454Z,6.80
2023-01-31T02:49:27.166Z,6.65
2023-01-31T02:54:31.500Z,6.25
2023-01-31T02:59:34.590Z,6.33
2023-01-31T03:04:36.631Z,6.31
2023-01-31T03:10:00.112Z,6.43
2023-01-31T03:15:26.591Z,6.39
2023-01-31T03:20:43.042Z,6.13
2023-01-31T03:25:46.477Z,5.91
2023-01-31T03:30:52.572Z,5.91
2023-01-31T03:36:14.138Z,5.76
2023-01-31T03:41:29.998Z,5.85
2023-01-31T03:46:38.453Z,5.94
2023-01-31T03:51:46.336Z,5.66
2023-01-31T03:56:55.133Z,5.61
2023-01-31T04:02:00.806Z,5.71
2023-01-31T04:07:03.996Z,5.62
2023-01-31T04:12:06.886Z,5.44
2023-01-31T04:17:08.432Z,5.43
2023-01-31T04:22:10.545Z,5.42
2023-01-31T04:27:12.365Z,5.55
2023-01-31T04:32:13.979Z,5.34
2023-01-31T04:37:15.551Z,5.18
2023-01-31T04:42:17.072Z,5.20
2023-01-31T04:47:18.823Z,5.20
2023-01-31T04:52:20.291Z,5.16
2023-01-31T04:57:21.784Z,5.25
2023-01-31T05:02:23.388Z,5.45
2023-01-31T05:07:24.910Z,5.41
2023-01-31T05:12:26.512Z,5.32
2023-01-31T05:17:28.013Z,5.40
2023-01-31T05:22:29.597Z,5.40
2023-01-31T05:27:31.504Z,5.65
2023-01-31T05:32:33.320Z,5.74
2023-01-31T05:37:34.860Z,5.67
2023-01-31T05:42:36.471Z,5.79
2023-01-31T05:47:38.047Z,5.89
2023-01-31T05:52:39.867Z,5.77
2023-01-31T05:57:41.351Z,5.91
2023-01-31T06:02:43.146Z,5.76
2023-01-31T06:07:44.794Z,5.83
2023-01-31T06:12:46.366Z,5.78
2023-01-31T06:17:48.074Z,5.69
2023-01-31T06:22:49.698Z,5.72
2023-01-31T06:27:51.311Z,5.76
2023-01-31T06:32:52.916Z,5.78
2023-01-31T06:37:58.105Z,5.92
2023-01-31T06:43:00.117Z,5.96
2023-01-31T06:48:02.067Z,5.98
2023-01-31T06:53:04.071Z,6.07
2023-01-31T06:58:05.722Z,6.13
2023-01-31T07:03:07.227Z,6.16
2023-01-31T07:08:08.795Z,6.05
2023-01-31T07:13:10.399Z,6.00
2023-01-31T07:18:12.301Z,6.03
2023-01-31T07:23:14.000Z,5.93
2023-01-31T07:28:15.659Z,6.00
2023-01-31T07:33:17.238Z,6.11
2023-01-31T07:38:18.765Z,5.98
2023-01-31T07:43:20.341Z,5.99
2023-01-31T07:48:21.963Z,5.98
2023-01-31T07:53:23.579Z,5.93
2023-01-31T07:58:25.252Z,5.93
2023-01-31T08:03:29.608Z,5.86
2023-01-31T08:08:31.284Z,5.81
2023-01-31T08:13:36.799Z,5.96
2023-01-31T08:18:38.909Z,6.22
2023-01-31T08:23:40.874Z,6.24
2023-01-31T08:28:43.904Z,6.29
2023-01-31T08:33:45.647Z,6.39
2023-01-31T08:38:47.942Z,6.57
2023-01-31T08:43:58.257Z,6.73
2023-01-31T08:49:05.940Z,6.82
2023-01-31T08:54:07.589Z,6.91
2023-01-31T08:59:10.898Z,6.81
2023-01-31T09:04:12.692Z,6.93
2023-01-31T09:09:14.390Z,7.08
2023-01-31T09:14:16.088Z,7.35
2023-01-31T09:19:17.731Z,7.64
2023-01-31T09:24:19.457Z,7.80
2023-01-31T09:29:21.147Z,8.05
2023-01-31T09:34:22.912Z,8.33
2023-01-31T09:39:25.262Z,8.69
2023-01-31T09:44:33.923Z,8.81
2023-01-31T09:49:50.043Z,9.05
2023-01-31T09:54:51.836Z,9.33
2023-01-31T10:00:06.315Z,9.64
2023-01-31T10:05:26.401Z,9.82
2023-01-31T10:10:39.024Z,9.86
2023-01-31T10:15:53.096Z,10.03
2023-01-31T10:21:27.559Z,10.39
2023-01-31T10:26:33.354Z,10.60
2023-01-31T10:32:00.968Z,10.70
2023-01-31T10:37:11.372Z,10.99
2023-01-31T10:42:32.550Z,11.52
2023-01-31T10:47:35.729Z,12.83
2023-01-31T10:53:06.389Z,14.69
2023-01-31T10:58:19.073Z,15.82
2023-01-31T11:03:20.990Z,14.19
2023-01-31T11:08:40.096Z,13.91
2023-01-31T11:13:54.474Z,13.59
2023-01-31T11:18:58.328Z,13.91
2023-01-31T11:24:06.430Z,14.77
2023-01-31T11:29:17.497Z,14.72
2023-01-31T11:34:25.630Z,13.72
2023-01-31T11:39:29.424Z,12.52
2023-01-31T11:44:31.208Z,11.59
2023-01-31T11:49:42.871Z,11.24
2023-01-31T11:54:50.130Z,10.92
2023-01-31T11:59:55.353Z,10.69
2023-01-31T12:04:57.238Z,10.43
2023-01-31T12:09:58.880Z,10.54
2023-01-31T12:15:04.825Z,10.25
2023-01-31T12:20:28.048Z,9.99
2023-01-31T12:25:54.676Z,10.09
2023-01-31T12:31:02.360Z,11.19
2023-01-31T12:36:21.246Z,12.75
2023-01-31T12:42:11.326Z,15.35
2023-01-31T12:47:24.849Z,18.43
2023-01-31T12:52:35.802Z,19.77
2023-01-31T12:58:16.169Z,19.60
2023-01-31T13:03:33.607Z,19.34
2023-01-31T13:08:41.279Z,17.89
2023-01-31T13:13:53.686Z,16.10
2023-01-31T13:19:02.211Z,16.46
2023-01-31T13:24:19.328Z,16.65
2023-01-31T13:29:27.919Z,16.14
2023-01-31T13:34:40.189Z,15.37
2023-01-31T13:39:46.172Z,14.68
2023-01-31T13:44:48.641Z,13.69
2023-01-31T13:50:15.470Z,12.44
2023-01-31T13:55:39.833Z,11.47
2023-01-31T14:00:48.697Z,11.02
2023-01-31T14:06:01.729Z,10.72
2023-01-31T14:11:30.004Z,10.67
2023-01-31T14:16:32.304Z,10.42
2023-01-31T14:21:37.140Z,10.29
2023-01-31T14:26:41.869Z,10.08
2023-01-31T14:31:45.453Z,10.09
2023-01-31T14:37:08.447Z,9.80
2023-01-31T14:42:22.244Z,9.70
2023-01-31T14:47:53.217Z,9.70
2023-01-31T14:53:29.851Z,9.55
2023-01-31T14:58:33.496Z,9.59
2023-01-31T15:03:39.175Z,9.41
2023-01-31T15:08:47.716Z,9.33
2023-01-31T15:13:52.964Z,9.31
2023-01-31T15:19:12.866Z,8.99
2023-01-31T15:24:26.116Z,8.89
2023-01-31T15:29:34.429Z,9.25
2023-01-31T15:34:50.131Z,9.05
2023-01-31T15:39:57.228Z,9.19
2023-01-31T15:45:17.235Z,9.32
2023-01-31T15:50:20.543Z,9.37
2023-01-31T15:55:22.701Z,9.13
2023-01-31T16:00:28.974Z,9.25
2023-01-31T16:05:36.801Z,9.17
2023-01-31T16:10:38.883Z,9.00
2023-01-31T16:15:41.333Z,9.13
2023-01-31T16:20:47.535Z,8.86
2023-01-31T16:25:55.618Z,8.91
2023-01-31T16:31:06.543Z,9.11
2023-01-31T16:36:17.373Z,8.96
2023-01-31T16:41:52.932Z,8.94
2023-01-31T16:46:55.112Z,8.92
2023-01-31T16:52:24.497Z,9.09
2023-01-31T16:57:29.363Z,9.02
2023-01-31T17:02:34.350Z,9.06
2023-01-31T17:07:37.217Z,9.07
2023-01-31T17:12:39.468Z,9.11
2023-01-31T17:17:41.384Z,9.17
2023-01-31T17:22:50.468Z,9.21
2023-01-31T17:27:55.331Z,9.31
2023-01-31T17:32:58.538Z,9.30
2023-01-31T17:38:00.884Z,9.13
2023-01-31T17:43:04.750Z,9.33
2023-01-31T17:48:07.764Z,9.22
2023-01-31T17:53:14.755Z,9.05
2023-01-31T17:58:18.025Z,9.02
2023-01-31T18:03:22.693Z,8.88
2023-01-31T18:08:24.442Z,8.83
2023-01-31T18:13:26.238Z,8.90
2023-01-31T18:18:28.165Z,8.95
2023-01-31T18:23:30.218Z,8.97
2023-01-31T18:28:32.193Z,8.91
2023-01-31T18:33:34.084Z,8.96
2023-01-31T18:38:35.973Z,8.90
2023-01-31T18:43:37.812Z,8.96
2023-01-31T18:48:41.153Z,9.06
2023-01-31T18:53:45.462Z,8.99
2023-01-31T18:58:48.813Z,8.95
2023-01-31T19:03:52.220Z,9.10
2023-01-31T19:08:56.252Z,9.17
2023-01-31T19:14:00.834Z,9.19
2023-01-31T19:19:02.959Z,9.16
2023-01-31T19:24:07.626Z,9.12
2023-01-31T19:29:13.710Z,9.07
2023-01-31T19:34:15.603Z,8.98
2023-01-31T19:39:17.484Z,8.95
2023-01-31T19:44:19.365Z,8.96
2023-01-31T19:49:22.019Z,8.92
2023-01-31T19:54:23.936Z,8.92
2023-01-31T19:59:25.663Z,8.65
2023-01-31T20:04:27.695Z,8.32
2023-01-31T20:09:29.429Z,8.57
2023-01-31T20:14:31.383Z,8.67
2023-01-31T20:19:33.400Z,8.41
2023-01-31T20:24:36.527Z,8.55
2023-01-31T20:29:38.440Z,8.76
2023-01-31T20:34:40.525Z,8.43
2023-01-31T20:39:43.358Z,8.32
2023-01-31T20:44:45.093Z,8.18
2023-01-31T20:49:46.838Z,8.44
2023-01-31T20:54:48.857Z,8.52
2023-01-31T20:59:50.776Z,8.82
2023-01-31T21:04:52.631Z,8.71
2023-01-31T21:09:54.570Z,8.68
2023-01-31T21:14:56.473Z,8.55
2023-01-31T21:19:58.836Z,8.47
2023-01-31T21:25:00.687Z,8.48
2023-01-31T21:30:02.914Z,8.48
2023-01-31T21:35:05.074Z,8.72
2023-01-31T21:40:08.660Z,8.61
2023-01-31T21:45:11.052Z,8.58
2023-01-31T21:50:13.024Z,8.43
2023-01-31T21:55:16.376Z,8.56
2023-01-31T22:00:19.270Z,8.46
2023-01-31T22:05:23.477Z,8.68
2023-01-31T22:10:25.444Z,8.49
2023-01-31T22:15:27.353Z,8.54
2023-01-31T22:20:29.355Z,8.54
2023-01-31T22:25:36.037Z,8.55
2023-01-31T22:30:38.050Z,8.45
2023-01-31T22:35:39.815Z,8.29
2023-01-31T22:40:45.919Z,8.55
2023-01-31T22:45:49.631Z,8.49
2023-01-31T22:50:56.769Z,8.43
2023-01-31T22:56:07.012Z,8.43
2023-01-31T23:01:30.399Z,8.37
2023-01-31T23:06:33.132Z,8.46
2023-01-31T23:11:35.063Z,8.42
2023-01-31T23:16:39.062Z,8.24
2023-01-31T23:21:42.069Z,8.22
2023-01-31T23:26:44.109Z,8.18
2023-01-31T23:31:46.258Z,8.29
2023-01-31T23:36:48.440Z,8.56
2023-01-31T23:41:50.314Z,8.53
2023-01-31T23:46:52.306Z,8.65
2023-01-31T23:51:54.385Z,8.71
2023-01-31T23:56:56.431Z,8.65
